Time;durP1;ratioP1;P1;durP2;ratioP2;P2;SDS_P1;SDS_P2;PMS_P1;PMS_P2;Temp;Humidity;BMP_temperature;BMP_pressure;BME280_temperature;BME280_humidity;BME280_pressure;Samples;Min_cycle;Max_cycle;Signal;HPM_P1;HPM_P2
2023/07/03 00:00:11;;;;;;;19.13;6.93;;;14.90;99.90;;;;;;4956563;29;20057;-66
2023/07/03 00:02:36;;;;;;;16.85;6.82;;;14.90;99.90;;;;;;4957593;28;20043;-66
2023/07/03 00:05:03;;;;;;;15.45;6.57;;;14.90;99.90;;;;;;4972538;28;20039;-67
2023/07/03 00:07:29;;;;;;;19.08;6.72;;;14.90;99.90;;;;;;4972552;28;20066;-67
2023/07/03 00:09:54;;;;;;;16.90;6.70;;;15.00;99.90;;;;;;4956483;29;20078;-67
2023/07/03 00:12:20;;;;;;;19.10;7.15;;;15.00;99.90;;;;;;4956514;29;20045;-66
2023/07/03 00:14:46;;;;;;;16.65;6.68;;;15.00;99.90;;;;;;4972324;28;20054;-66
2023/07/03 00:17:11;;;;;;;16.48;6.57;;;15.00;99.90;;;;;;4957423;29;20043;-67
2023/07/03 00:19:37;;;;;;;14.93;6.18;;;15.00;99.90;;;;;;4972389;28;20039;-67
2023/07/03 00:22:03;;;;;;;19.67;6.85;;;15.00;99.90;;;;;;4955997;29;20071;-67
2023/07/03 00:24:31;;;;;;;16.50;6.40;;;15.00;99.90;;;;;;4940494;29;20513;-66
2023/07/03 00:26:57;;;;;;;17.75;6.18;;;15.10;99.90;;;;;;4972013;28;20039;-66
2023/07/03 00:29:23;;;;;;;21.13;6.75;;;15.10;99.90;;;;;;4955903;29;20043;-65
2023/07/03 00:31:49;;;;;;;17.92;6.50;;;15.00;99.90;;;;;;4957168;28;20492;-67
2023/07/03 00:34:15;;;;;;;21.15;6.65;;;15.00;99.90;;;;;;4971897;28;20054;-67
2023/07/03 00:36:41;;;;;;;18.27;6.75;;;15.10;99.90;;;;;;4955874;29;20047;-66
2023/07/03 00:39:08;;;;;;;17.30;6.53;;;15.10;99.90;;;;;;4955921;29;20102;-64
2023/07/03 00:41:34;;;;;;;19.88;6.60;;;15.10;99.90;;;;;;4971339;28;20035;-65
2023/07/03 00:44:01;;;;;;;18.55;6.88;;;15.20;99.90;;;;;;4956878;29;20102;-66
2023/07/03 00:46:27;;;;;;;18.25;6.57;;;15.10;99.90;;;;;;4955853;29;20039;-65
2023/07/03 00:48:53;;;;;;;19.00;6.65;;;15.10;99.90;;;;;;4955611;29;20102;-65
2023/07/03 00:51:19;;;;;;;21.42;6.95;;;15.10;99.90;;;;;;4956869;29;20513;-66
2023/07/03 00:53:44;;;;;;;20.50;6.78;;;15.10;99.90;;;;;;4955779;29;20039;-65
2023/07/03 00:56:12;;;;;;;21.58;7.43;;;15.10;99.90;;;;;;4971648;28;20055;-66
2023/07/03 00:58:38;;;;;;;18.98;6.88;;;15.10;99.90;;;;;;4955239;29;20047;-66
2023/07/03 01:01:24;;;;;;;18.83;7.03;;;15.10;99.90;;;;;;4955453;29;20051;-66
2023/07/03 01:04:00;;;;;;;20.40;7.20;;;15.10;99.90;;;;;;4955310;29;20054;-66
2023/07/03 01:06:34;;;;;;;19.42;6.55;;;15.10;99.90;;;;;;4956463;28;20047;-65
2023/07/03 01:09:01;;;;;;;20.45;6.97;;;15.10;99.90;;;;;;4956468;28;20105;-65
2023/07/03 01:11:27;;;;;;;17.20;6.90;;;15.10;99.90;;;;;;4971297;28;20057;-65
2023/07/03 01:13:57;;;;;;;20.42;6.55;;;15.10;99.90;;;;;;4955158;29;20079;-66
2023/07/03 01:16:23;;;;;;;18.63;6.70;;;15.10;99.90;;;;;;4956257;28;20036;-66
2023/07/03 01:18:53;;;;;;;24.25;7.68;;;15.10;99.90;;;;;;4955117;29;20079;-66
2023/07/03 01:21:35;;;;;;;22.15;7.30;;;15.10;99.90;;;;;;4955235;29;20043;-66
2023/07/03 01:24:05;;;;;;;;;;;15.20;99.90;;;;;;4971475;28;20039;-66
2023/07/03 01:26:32;;;;;;;19.23;7.10;;;15.10;99.90;;;;;;4956120;28;19919;-65
2023/07/03 01:29:00;;;;;;;22.67;7.00;;;15.10;99.90;;;;;;4954724;29;20137;-66
2023/07/03 01:31:30;;;;;;;18.05;6.68;;;15.10;99.90;;;;;;4955997;28;20076;-66
2023/07/03 01:33:58;;;;;;;18.92;6.93;;;15.10;99.90;;;;;;4954721;29;20135;-66
2023/07/03 01:36:24;;;;;;;21.75;6.72;;;15.10;99.90;;;;;;4955906;28;20043;-66
2023/07/03 01:38:51;;;;;;;19.80;6.90;;;15.10;99.90;;;;;;4970990;28;20507;-66
2023/07/03 01:41:18;;;;;;;20.33;6.40;;;15.10;99.90;;;;;;4954993;29;20395;-66
2023/07/03 01:43:45;;;;;;;19.05;6.70;;;15.10;99.90;;;;;;4971051;28;20047;-66
2023/07/03 01:46:12;;;;;;;17.98;6.55;;;15.10;99.90;;;;;;4970706;28;20074;-65
2023/07/03 01:48:38;;;;;;;19.80;6.82;;;15.20;99.90;;;;;;4954434;29;20039;-65
2023/07/03 01:51:07;;;;;;;21.15;6.30;;;15.20;99.90;;;;;;4970565;28;20404;-66
2023/07/03 01:53:48;;;;;;;21.50;6.40;;;15.20;99.90;;;;;;4953653;28;20122;-66
2023/07/03 01:56:23;;;;;;;19.90;6.38;;;15.20;99.90;;;;;;4955682;28;20051;-66
2023/07/03 01:58:52;;;;;;;21.42;6.95;;;15.20;99.90;;;;;;4970311;28;20043;-66
2023/07/03 02:01:44;;;;;;;24.77;7.07;;;15.20;99.90;;;;;;4938555;29;20066;-66
2023/07/03 02:04:28;;;;;;;18.13;6.57;;;15.20;99.90;;;;;;4937525;29;20487;-66
2023/07/03 02:06:56;;;;;;;19.67;6.38;;;15.20;99.90;;;;;;4970357;28;20118;-66
2023/07/03 02:09:23;;;;;;;20.27;6.32;;;15.20;99.90;;;;;;4970357;28;20511;-66
2023/07/03 02:11:51;;;;;;;20.38;7.03;;;15.10;99.90;;;;;;4970334;28;20045;-66
2023/07/03 02:14:17;;;;;;;21.25;7.05;;;15.20;99.90;;;;;;4955421;29;20129;-66
2023/07/03 02:16:46;;;;;;;22.05;7.00;;;15.20;99.90;;;;;;4922416;29;20126;-66
2023/07/03 02:19:15;;;;;;;27.20;7.00;;;15.20;99.90;;;;;;4955177;29;20047;-66
2023/07/03 02:21:43;;;;;;;22.40;6.63;;;15.20;99.90;;;;;;4953784;29;20047;-66
2023/07/03 02:24:11;;;;;;;22.52;6.63;;;15.20;99.90;;;;;;4970120;28;20130;-66
2023/07/03 02:26:41;;;;;;;22.65;6.35;;;15.20;99.90;;;;;;4955357;29;20047;-66
2023/07/03 02:29:07;;;;;;;23.80;6.70;;;15.20;99.90;;;;;;4953802;29;20053;-66
2023/07/03 02:31:33;;;;;;;23.77;6.82;;;15.10;99.90;;;;;;4955031;29;20547;-66
2023/07/03 02:33:58;;;;;;;19.55;6.75;;;15.20;99.90;;;;;;4953776;29;20495;-67
2023/07/03 02:36:29;;;;;;;22.67;7.07;;;15.20;99.90;;;;;;4955300;29;20129;-68
2023/07/03 02:38:55;;;;;;;19.75;6.97;;;15.20;99.90;;;;;;4937763;29;20051;-65
2023/07/03 02:41:22;;;;;;;20.15;6.57;;;15.20;99.90;;;;;;4953862;29;20051;-66
2023/07/03 02:43:48;;;;;;;20.25;7.00;;;15.20;99.90;;;;;;4938090;29;20039;-67
2023/07/03 02:46:14;;;;;;;20.77;6.20;;;15.20;99.90;;;;;;4969807;28;20050;-67
2023/07/03 02:48:40;;;;;;;22.88;6.47;;;15.20;99.90;;;;;;4969686;28;20043;-67
2023/07/03 02:51:06;;;;;;;23.45;6.63;;;15.20;99.90;;;;;;4970005;28;20122;-66
2023/07/03 02:53:33;;;;;;;25.00;6.78;;;15.30;99.90;;;;;;4954813;29;20110;-69
2023/07/03 02:55:58;;;;;;;23.90;6.72;;;15.30;99.90;;;;;;4937455;28;20039;-67
2023/07/03 02:58:25;;;;;;;24.10;6.85;;;15.30;99.90;;;;;;4969996;28;20050;-66
2023/07/03 03:00:51;;;;;;;19.00;5.93;;;15.30;99.90;;;;;;4969995;28;20084;-66
2023/07/03 03:03:17;;;;;;;24.27;6.60;;;15.40;99.90;;;;;;4953395;28;20047;-67
2023/07/03 03:05:43;;;;;;;20.92;5.88;;;15.30;99.90;;;;;;4957358;29;20042;-70
2023/07/03 03:08:11;;;;;;;28.75;7.28;;;15.30;99.90;;;;;;4941646;29;20512;-67
2023/07/03 03:10:37;;;;;;;22.45;6.43;;;15.40;99.90;;;;;;4957372;29;20040;-67
2023/07/03 03:13:03;;;;;;;24.23;6.68;;;15.40;99.90;;;;;;4973225;28;20054;-66
2023/07/03 03:15:34;;;;;;;21.95;6.45;;;15.40;99.90;;;;;;4973631;28;20487;-68
2023/07/03 03:18:01;;;;;;;23.17;6.33;;;15.40;99.90;;;;;;4941296;29;20047;-67
2023/07/03 03:20:27;;;;;;;23.63;6.38;;;15.40;99.90;;;;;;4958334;29;20097;-67
2023/07/03 03:22:52;;;;;;;22.50;6.25;;;15.50;99.90;;;;;;4941422;29;20134;-67
2023/07/03 03:25:18;;;;;;;23.83;6.65;;;15.50;99.90;;;;;;4973513;28;20727;-66
2023/07/03 03:27:44;;;;;;;23.92;6.53;;;15.50;99.90;;;;;;4957248;29;20479;-68
2023/07/03 03:30:10;;;;;;;22.75;6.72;;;15.50;99.90;;;;;;4957085;29;20051;-67
2023/07/03 03:32:36;;;;;;;23.52;6.22;;;15.40;99.90;;;;;;4973200;28;20050;-66
2023/07/03 03:35:02;;;;;;;21.48;6.38;;;15.40;99.90;;;;;;4940966;29;20043;-66
2023/07/03 03:37:28;;;;;;;23.42;6.18;;;15.40;99.90;;;;;;4940922;29;20126;-66
2023/07/03 03:39:55;;;;;;;20.25;6.03;;;15.40;99.90;;;;;;4955771;29;20051;-66
2023/07/03 03:42:21;;;;;;;21.58;6.13;;;15.40;99.90;;;;;;4940944;29;20078;-66
2023/07/03 03:44:47;;;;;;;22.52;6.57;;;15.40;99.90;;;;;;4958040;29;20039;-66
2023/07/03 03:47:12;;;;;;;24.92;6.35;;;15.30;99.90;;;;;;4956818;29;20070;-66
2023/07/03 03:49:39;;;;;;;21.65;6.82;;;15.20;99.90;;;;;;4973027;28;20043;-66
2023/07/03 03:52:05;;;;;;;22.85;6.00;;;15.20;99.90;;;;;;4956923;29;20487;-66
2023/07/03 03:54:31;;;;;;;23.70;6.57;;;15.20;99.90;;;;;;4972740;28;20051;-65
2023/07/03 03:56:57;;;;;;;22.73;6.20;;;15.10;99.90;;;;;;4979406;28;20062;-66
2023/07/03 03:59:23;;;;;;;22.98;6.47;;;15.10;99.90;;;;;;4956442;29;20128;-65
2023/07/03 04:01:50;;;;;;;22.83;6.32;;;15.10;99.90;;;;;;4956464;29;20046;-66
2023/07/03 04:04:16;;;;;;;19.33;6.05;;;15.10;99.90;;;;;;4940511;29;20098;-66
2023/07/03 04:06:43;;;;;;;21.92;6.22;;;15.00;99.90;;;;;;4956556;29;20043;-66
2023/07/03 04:09:09;;;;;;;22.85;6.28;;;15.00;99.90;;;;;;4956587;29;20122;-66
2023/07/03 04:11:36;;;;;;;22.30;5.90;;;15.00;99.90;;;;;;4957785;28;20047;-66
2023/07/03 04:14:02;;;;;;;23.55;6.47;;;14.90;99.90;;;;;;4956547;29;20039;-66
2023/07/03 04:16:30;;;;;;;21.15;6.25;;;14.90;99.90;;;;;;4956574;28;20098;-66
2023/07/03 04:18:57;;;;;;;20.85;6.35;;;14.90;99.90;;;;;;4956065;29;20043;-67
2023/07/03 04:21:25;;;;;;;20.42;6.07;;;14.80;99.90;;;;;;4956086;29;20182;-66
2023/07/03 04:23:51;;;;;;;25.77;6.80;;;14.70;99.90;;;;;;4956052;29;20039;-66
2023/07/03 04:26:17;;;;;;;23.42;6.50;;;14.80;99.90;;;;;;4955962;29;20043;-67
2023/07/03 04:28:43;;;;;;;21.58;5.82;;;14.80;99.90;;;;;;4955960;29;20062;-67
2023/07/03 04:31:09;;;;;;;20.67;5.97;;;14.80;99.90;;;;;;4956225;29;20044;-67
2023/07/03 04:33:34;;;;;;;18.92;5.53;;;14.70;99.90;;;;;;4971978;28;20040;-66
2023/07/03 04:36:00;;;;;;;21.63;6.00;;;14.70;99.90;;;;;;4956006;29;20496;-67
2023/07/03 04:38:26;;;;;;;22.70;6.05;;;14.70;99.90;;;;;;4971956;28;20102;-66
2023/07/03 04:40:53;;;;;;;19.83;5.72;;;14.70;99.90;;;;;;4987984;28;20058;-66
2023/07/03 04:43:22;;;;;;;18.98;6.15;;;14.70;99.90;;;;;;4955961;29;20130;-66
2023/07/03 04:45:51;;;;;;;19.20;5.95;;;14.70;99.90;;;;;;4955785;29;20043;-66
2023/07/03 04:48:17;;;;;;;20.23;5.72;;;14.70;99.90;;;;;;4988055;28;20038;-65
2023/07/03 04:50:46;;;;;;;22.63;6.28;;;14.80;99.90;;;;;;4956803;29;20476;-66
2023/07/03 04:53:12;;;;;;;22.10;6.63;;;14.80;99.90;;;;;;4955781;29;20039;-66
2023/07/03 04:55:38;;;;;;;18.63;5.78;;;14.80;99.90;;;;;;4955452;29;20134;-66
2023/07/03 04:58:09;;;;;;;17.55;5.82;;;15.00;99.90;;;;;;4955211;29;20194;-66
2023/07/03 05:00:35;;;;;;;22.13;6.00;;;15.10;99.90;;;;;;4987777;28;20043;-66
2023/07/03 05:03:03;;;;;;;16.98;5.25;;;15.30;99.90;;;;;;4955491;29;20089;-66
2023/07/03 05:05:29;;;;;;;19.80;5.05;;;15.40;99.90;;;;;;4955524;29;20055;-66
2023/07/03 05:07:55;;;;;;;17.80;4.97;;;15.60;99.90;;;;;;4987452;28;20040;-66
2023/07/03 05:10:22;;;;;;;14.50;4.72;;;15.90;99.90;;;;;;4956429;28;20043;-66
2023/07/03 05:12:48;;;;;;;16.10;4.70;;;16.00;99.90;;;;;;4955214;29;20051;-66
2023/07/03 05:15:15;;;;;;;20.00;4.82;;;16.40;99.90;;;;;;4955327;29;20571;-66
2023/07/03 05:17:41;;;;;;;16.88;4.47;;;16.90;99.90;;;;;;4955118;29;20074;-66
2023/07/03 05:20:12;;;;;;;17.95;4.35;;;17.30;99.90;;;;;;4954813;29;20051;-66
2023/07/03 05:22:40;;;;;;;15.57;3.80;;;17.80;99.90;;;;;;4955061;29;20090;-65
2023/07/03 05:25:07;;;;;;;12.73;4.18;;;18.00;99.90;;;;;;4956048;28;20043;-66
2023/07/03 05:27:34;;;;;;;14.10;3.92;;;17.90;99.90;;;;;;4956029;28;20040;-66
2023/07/03 05:30:00;;;;;;;14.63;4.05;;;17.90;99.90;;;;;;4955182;28;20094;-66
2023/07/03 05:32:26;;;;;;;12.80;3.70;;;17.80;99.90;;;;;;4956348;28;20090;-66
2023/07/03 05:34:52;;;;;;;13.05;3.95;;;18.10;99.90;;;;;;4987443;28;20047;-66
2023/07/03 05:37:18;;;;;;;12.02;3.15;;;18.10;99.90;;;;;;4955051;29;20043;-65
2023/07/03 05:39:47;;;;;;;13.00;3.30;;;18.50;99.90;;;;;;4954443;29;20047;-67
2023/07/03 05:42:16;;;;;;;11.45;3.30;;;18.90;99.90;;;;;;4970829;28;20043;-66
2023/07/03 05:44:43;;;;;;;12.43;3.60;;;19.20;99.90;;;;;;4954628;29;20056;-66
2023/07/03 05:47:10;;;;;;;9.77;3.13;;;19.40;99.90;;;;;;4954582;29;20043;-65
2023/07/03 05:49:35;;;;;;;13.50;3.28;;;19.70;99.90;;;;;;4954411;29;20047;-66
2023/07/03 05:52:01;;;;;;;11.20;3.33;;;20.20;99.90;;;;;;4954490;29;20058;-66
2023/07/03 05:54:27;;;;;;;12.02;3.47;;;20.40;99.90;;;;;;4955646;28;20047;-66
2023/07/03 05:56:57;;;;;;;10.90;3.50;;;20.60;99.90;;;;;;4954201;29;20055;-66
2023/07/03 05:59:24;;;;;;;11.18;3.55;;;20.90;99.90;;;;;;4970623;28;20058;-66
2023/07/03 06:01:49;;;;;;;10.75;2.95;;;20.80;99.90;;;;;;4955844;28;20042;-66
2023/07/03 06:04:16;;;;;;;12.02;3.15;;;20.90;99.90;;;;;;4955868;28;20039;-66
2023/07/03 06:06:42;;;;;;;11.30;3.20;;;21.20;99.90;;;;;;4955455;28;20051;-66
2023/07/03 06:09:07;;;;;;;10.10;2.97;;;20.70;99.20;;;;;;4955623;29;20054;-66
2023/07/03 06:11:33;;;;;;;11.60;3.05;;;21.00;99.70;;;;;;4954446;29;20089;-66
2023/07/03 06:13:59;;;;;;;10.82;3.17;;;21.10;99.20;;;;;;4970247;28;20047;-66
2023/07/03 06:16:27;;;;;;;11.73;2.97;;;21.10;98.90;;;;;;4955526;29;20071;-66
2023/07/03 06:18:54;;;;;;;12.80;3.20;;;21.20;98.80;;;;;;4953962;29;20086;-66
2023/07/03 06:21:20;;;;;;;12.05;3.00;;;21.10;97.80;;;;;;4955523;28;20043;-66
2023/07/03 06:23:46;;;;;;;10.70;2.90;;;21.00;98.00;;;;;;4986358;28;20135;-66
2023/07/03 06:26:11;;;;;;;12.20;3.10;;;21.20;97.10;;;;;;4938003;29;20554;-66
2023/07/03 06:28:37;;;;;;;9.73;2.63;;;21.30;97.00;;;;;;4955223;28;20039;-66
2023/07/03 06:31:03;;;;;;;10.60;2.80;;;21.70;96.90;;;;;;4955425;29;20070;-66
2023/07/03 06:33:29;;;;;;;11.35;3.00;;;21.40;95.70;;;;;;4954982;28;20042;-66
2023/07/03 06:35:54;;;;;;;10.60;2.80;;;21.30;95.40;;;;;;4954230;29;20091;-65
2023/07/03 06:38:20;;;;;;;7.97;2.60;;;21.00;95.50;;;;;;4953698;28;20125;-66
2023/07/03 06:40:59;;;;;;;11.50;2.72;;;20.80;95.30;;;;;;4953802;29;20042;-66
2023/07/03 06:43:25;;;;;;;10.32;2.72;;;20.50;95.10;;;;;;4986392;28;20058;-66
2023/07/03 06:45:51;;;;;;;9.38;2.53;;;20.50;95.60;;;;;;4954214;29;20058;-66
2023/07/03 06:48:17;;;;;;;9.00;2.55;;;20.40;96.00;;;;;;4969824;28;20043;-66
2023/07/03 06:50:43;;;;;;;9.38;2.15;;;20.30;95.80;;;;;;4985969;28;20402;-66
2023/07/03 06:53:09;;;;;;;8.35;2.30;;;20.40;94.90;;;;;;4953907;29;20599;-65
2023/07/03 06:55:35;;;;;;;11.43;2.55;;;20.40;95.00;;;;;;4953592;29;20181;-65
2023/07/03 06:58:03;;;;;;;7.53;2.00;;;20.50;95.10;;;;;;4953419;29;20443;-66
2023/07/03 07:00:29;;;;;;;8.98;2.30;;;20.50;95.30;;;;;;4986028;28;20039;-65
2023/07/03 07:02:55;;;;;;;9.00;2.20;;;20.40;94.80;;;;;;4953540;29;20046;-65
2023/07/03 07:05:21;;;;;;;8.60;2.15;;;20.80;95.20;;;;;;4953506;29;20043;-66
2023/07/03 07:07:47;;;;;;;9.50;2.25;;;21.00;94.60;;;;;;4953832;29;20043;-65
2023/07/03 07:10:12;;;;;;;10.80;2.45;;;20.90;93.70;;;;;;4953485;29;20101;-65
2023/07/03 07:12:41;;;;;;;8.07;2.40;;;20.80;93.00;;;;;;4954565;29;20106;-65
2023/07/03 07:15:07;;;;;;;8.52;2.25;;;20.90;94.00;;;;;;4953675;29;20563;-65
2023/07/03 07:17:33;;;;;;;11.18;2.60;;;20.80;93.10;;;;;;4953763;29;20495;-65
2023/07/03 07:19:59;;;;;;;10.95;2.65;;;20.70;93.90;;;;;;4969394;28;20074;-65
2023/07/03 07:22:25;;;;;;;10.85;2.50;;;20.50;93.40;;;;;;4953450;29;20066;-65
2023/07/03 07:24:51;;;;;;;9.40;2.30;;;20.10;93.20;;;;;;4954850;29;20039;-65
2023/07/03 07:27:17;;;;;;;9.80;2.40;;;20.00;94.10;;;;;;4969363;28;20079;-66
2023/07/03 07:29:42;;;;;;;12.10;2.58;;;20.10;94.90;;;;;;4937498;29;20559;-66
2023/07/03 07:32:09;;;;;;;10.70;2.42;;;20.00;94.20;;;;;;4953989;29;20513;-66
2023/07/03 07:34:34;;;;;;;10.00;2.40;;;20.10;94.80;;;;;;4969432;28;20059;-66
2023/07/03 07:37:00;;;;;;;11.63;2.50;;;20.20;94.60;;;;;;4953236;29;20039;-65
2023/07/03 07:39:26;;;;;;;10.35;2.40;;;20.30;94.40;;;;;;4953158;29;20074;-65
2023/07/03 07:41:55;;;;;;;9.43;2.40;;;20.30;94.80;;;;;;4954645;28;20479;-65
2023/07/03 07:44:21;;;;;;;8.52;2.08;;;20.40;95.20;;;;;;4954474;28;20121;-65
2023/07/03 07:46:46;;;;;;;11.27;2.35;;;20.20;95.20;;;;;;4969281;28;20122;-65
2023/07/03 07:49:12;;;;;;;10.30;2.30;;;20.00;95.30;;;;;;4954416;29;20559;-66
2023/07/03 07:51:39;;;;;;;11.45;2.58;;;19.90;95.30;;;;;;4954963;28;20098;-65
2023/07/03 07:54:05;;;;;;;9.85;2.80;;;20.20;95.70;;;;;;4956681;29;20047;-66
2023/07/03 07:56:31;;;;;;;11.18;2.50;;;20.10;94.80;;;;;;4956365;29;20114;-65
2023/07/03 07:58:57;;;;;;;9.30;2.40;;;20.00;94.70;;;;;;4956767;29;20059;-66
2023/07/03 08:01:23;;;;;;;8.18;2.20;;;19.80;95.40;;;;;;4956491;29;20047;-65
2023/07/03 08:03:49;;;;;;;9.63;2.38;;;19.90;95.90;;;;;;4956660;29;20043;-66
2023/07/03 08:06:15;;;;;;;6.97;1.85;;;20.10;95.60;;;;;;4956441;29;20059;-65
2023/07/03 08:08:42;;;;;;;10.00;2.60;;;20.50;95.10;;;;;;4988665;28;20050;-65
2023/07/03 08:11:09;;;;;;;9.70;2.20;;;20.80;93.70;;;;;;4956541;29;20495;-66
2023/07/03 08:13:38;;;;;;;8.93;2.15;;;21.10;93.00;;;;;;4956256;29;20083;-65
2023/07/03 08:16:05;;;;;;;8.98;2.28;;;21.10;92.50;;;;;;4956212;29;20122;-66
2023/07/03 08:18:31;;;;;;;7.57;2.03;;;21.30;92.90;;;;;;4956520;29;20100;-66
2023/07/03 08:20:57;;;;;;;8.63;2.17;;;21.10;92.50;;;;;;4956106;29;20050;-65
2023/07/03 08:23:23;;;;;;;7.68;1.90;;;20.80;92.20;;;;;;4957394;28;20039;-65
2023/07/03 08:25:51;;;;;;;7.80;1.85;;;20.70;92.60;;;;;;4957516;28;20538;-65
2023/07/03 08:28:20;;;;;;;7.10;1.80;;;20.60;92.40;;;;;;4957570;28;20035;-65
2023/07/03 08:30:46;;;;;;;7.90;1.90;;;20.40;90.60;;;;;;4957278;28;20141;-65
2023/07/03 08:33:13;;;;;;;8.38;2.08;;;20.10;91.60;;;;;;4972028;28;20110;-65
2023/07/03 08:35:40;;;;;;;7.43;1.50;;;20.00;92.20;;;;;;4955768;29;20082;-65
2023/07/03 08:38:06;;;;;;;8.20;1.60;;;19.90;91.40;;;;;;4972223;28;20043;-65
2023/07/03 08:40:32;;;;;;;8.70;1.75;;;19.90;90.90;;;;;;4957014;29;20506;-65
2023/07/03 08:42:59;;;;;;;7.15;1.50;;;20.20;91.30;;;;;;4955920;29;20044;-66
2023/07/03 08:45:54;;;;;;;8.10;1.70;;;20.50;91.40;;;;;;4957081;28;20122;-65
2023/07/03 08:48:24;;;;;;;5.78;1.30;;;20.60;90.00;;;;;;4956975;28;20089;-65
2023/07/03 08:50:58;;;;;;;9.73;1.70;;;20.80;90.90;;;;;;4955614;29;20051;-66
2023/07/03 08:53:44;;;;;;;7.60;1.40;;;21.00;89.30;;;;;;4971643;28;20354;-65
2023/07/03 08:56:17;;;;;;;7.47;1.50;;;21.00;87.80;;;;;;4955577;29;20499;-65
2023/07/03 08:58:49;;;;;;;8.77;1.60;;;21.00;87.90;;;;;;4987978;28;20411;-65
2023/07/03 09:01:34;;;;;;;6.68;1.58;;;20.80;87.50;;;;;;4955513;28;20139;-64
2023/07/03 09:04:18;;;;;;;6.18;1.55;;;21.10;90.40;;;;;;4955677;29;20496;-65
2023/07/03 09:06:57;;;;;;;6.60;1.50;;;21.20;88.90;;;;;;4955623;29;20039;-65
2023/07/03 09:09:43;;;;;;;5.93;1.50;;;21.20;89.20;;;;;;4955522;29;20058;-65
2023/07/03 09:12:30;;;;;;;7.00;1.50;;;21.10;87.00;;;;;;4955153;29;20047;-65
2023/07/03 09:15:04;;;;;;;7.68;1.65;;;20.80;86.50;;;;;;4987817;28;20070;-65
2023/07/03 09:17:31;;;;;;;6.95;1.42;;;20.50;87.80;;;;;;4956709;28;20035;-66
2023/07/03 09:19:58;;;;;;;8.15;1.70;;;20.20;88.50;;;;;;4971108;28;20054;-66
2023/07/03 09:22:37;;;;;;;7.35;1.48;;;20.00;89.40;;;;;;4954994;29;20043;-66
2023/07/03 09:25:06;;;;;;;7.10;1.70;;;19.90;90.20;;;;;;4971178;28;20083;-66
2023/07/03 09:27:32;;;;;;;7.95;1.70;;;19.90;90.20;;;;;;4956451;28;20127;-66
2023/07/03 09:30:06;;;;;;;7.63;1.73;;;19.80;90.50;;;;;;4971275;28;20503;-66
2023/07/03 09:32:33;;;;;;;8.15;1.73;;;19.80;90.50;;;;;;4955079;29;20074;-67
2023/07/03 09:35:07;;;;;;;6.88;1.70;;;19.80;90.60;;;;;;4954830;29;20051;-65
2023/07/03 09:37:42;;;;;;;8.35;1.90;;;19.90;90.30;;;;;;4956284;28;20047;-65
2023/07/03 09:40:17;;;;;;;5.95;1.65;;;20.00;90.60;;;;;;4954622;29;20105;-65
2023/07/03 09:42:43;;;;;;;9.38;1.73;;;20.10;89.20;;;;;;4955865;29;20126;-65
2023/07/03 09:45:15;;;;;;;9.02;1.80;;;20.20;85.90;;;;;;4954886;29;20546;-65
2023/07/03 09:47:55;;;;;;;;;;;20.40;86.70;;;;;;4956174;28;20075;-65
2023/07/03 09:50:37;;;;;;;8.25;1.95;;;20.70;88.50;;;;;;4955746;28;19946;-66
2023/07/03 09:53:04;;;;;;;9.95;2.00;;;21.30;89.60;;;;;;4954489;29;20114;-65
2023/07/03 09:55:30;;;;;;;9.27;1.90;;;21.50;85.50;;;;;;4954547;29;20039;-65
2023/07/03 09:57:56;;;;;;;6.55;1.52;;;21.70;85.00;;;;;;4970184;28;20136;-66
2023/07/03 10:00:24;;;;;;;7.57;1.80;;;21.80;84.70;;;;;;4986603;28;20503;-66
2023/07/03 10:02:57;;;;;;;7.32;1.88;;;21.80;84.50;;;;;;4954590;29;20491;-66
2023/07/03 10:05:32;;;;;;;9.75;1.90;;;22.00;83.30;;;;;;4954507;29;20050;-66
2023/07/03 10:08:02;;;;;;;8.32;1.90;;;22.30;83.50;;;;;;4970330;28;20043;-66
2023/07/03 10:10:30;;;;;;;8.40;2.22;;;22.20;82.00;;;;;;4954363;29;20503;-65
2023/07/03 10:13:21;;;;;;;7.05;1.80;;;21.80;82.30;;;;;;4953809;28;20102;-66
2023/07/03 10:15:47;;;;;;;5.93;1.70;;;21.30;82.60;;;;;;4954069;29;20047;-66
2023/07/03 10:18:39;;;;;;;6.72;1.63;;;20.90;83.00;;;;;;4954141;29;20047;-66
2023/07/03 10:21:10;;;;;;;6.28;1.60;;;20.70;82.80;;;;;;4975951;28;20115;-67
2023/07/03 10:23:39;;;;;;;8.18;1.60;;;20.60;83.90;;;;;;4955462;28;20101;-67
2023/07/03 10:26:44;;;;;;;8.95;1.90;;;20.80;87.40;;;;;;4938017;29;20126;-68
2023/07/03 10:29:21;;;;;;;9.13;2.00;;;21.50;85.70;;;;;;4896043;29;20222;-65
2023/07/03 10:31:55;;;;;;;8.18;1.73;;;21.60;82.30;;;;;;4946629;29;20051;-66
2023/07/03 10:34:49;;;;;;;6.60;1.70;;;21.40;82.20;;;;;;4955346;28;20090;-66
2023/07/03 10:37:18;;;;;;;6.80;1.63;;;21.30;82.50;;;;;;4955087;29;20051;-66
2023/07/03 10:39:52;;;;;;;6.97;1.50;;;21.10;81.50;;;;;;4953886;29;20595;-67
2023/07/03 10:42:30;;;;;;;7.45;1.60;;;21.40;83.10;;;;;;4954988;28;20035;-67
2023/07/03 10:45:01;;;;;;;5.78;1.60;;;21.70;80.50;;;;;;4954963;28;20052;-66
2023/07/03 10:47:46;;;;;;;6.75;1.60;;;21.70;79.60;;;;;;4953717;29;20039;-66
2023/07/03 10:50:13;;;;;;;7.28;1.70;;;21.50;78.30;;;;;;4953969;29;20514;-66
2023/07/03 10:53:01;;;;;;;7.00;1.70;;;21.10;77.70;;;;;;4953874;29;20043;-66
2023/07/03 10:55:36;;;;;;;6.28;1.50;;;20.70;79.40;;;;;;4953957;29;20078;-67
2023/07/03 10:58:11;;;;;;;6.28;1.70;;;20.80;81.60;;;;;;4937538;29;20105;-67
2023/07/03 11:01:06;;;;;;;7.10;1.73;;;20.80;81.80;;;;;;4953521;29;20051;-66
2023/07/03 11:03:49;;;;;;;5.97;1.60;;;20.70;82.30;;;;;;4944046;29;20093;-66
2023/07/03 11:06:31;;;;;;;7.20;1.50;;;20.70;82.10;;;;;;4953521;29;20043;-66
2023/07/03 11:09:23;;;;;;;8.15;1.75;;;20.80;83.10;;;;;;4953572;29;20047;-65
2023/07/03 11:12:12;;;;;;;7.75;1.70;;;21.10;82.60;;;;;;4953572;29;20054;-66
2023/07/03 11:15:02;;;;;;;7.07;1.63;;;21.20;82.70;;;;;;4954725;29;20550;-66
2023/07/03 11:17:39;;;;;;;5.65;1.50;;;20.90;82.20;;;;;;4986033;28;20479;-66
2023/07/03 11:20:16;;;;;;;7.20;1.60;;;21.10;83.50;;;;;;4954864;29;20043;-65
2023/07/03 11:22:48;;;;;;;7.20;1.60;;;21.40;83.80;;;;;;4953435;29;20051;-66
2023/07/03 11:25:34;;;;;;;6.18;1.45;;;21.50;82.00;;;;;;4954800;28;20114;-66
2023/07/03 11:28:14;;;;;;;7.55;1.50;;;21.30;78.60;;;;;;4973557;28;20122;-65
2023/07/03 11:30:42;;;;;;;6.13;1.75;;;20.90;80.30;;;;;;4957281;29;20050;-65
2023/07/03 11:33:08;;;;;;;8.05;1.73;;;20.60;81.50;;;;;;4973259;28;20058;-66
2023/07/03 11:35:34;;;;;;;8.10;1.67;;;20.20;82.50;;;;;;4957289;29;20508;-66
2023/07/03 11:38:06;;;;;;;7.30;1.60;;;20.00;82.70;;;;;;4958184;28;20043;-66
2023/07/03 11:40:34;;;;;;;7.47;1.60;;;19.90;83.90;;;;;;4973047;28;20047;-66
2023/07/03 11:43:15;;;;;;;5.43;1.55;;;19.80;84.30;;;;;;4956937;29;20058;-66
2023/07/03 11:46:08;;;;;;;7.65;1.60;;;19.80;85.70;;;;;;4956691;29;20051;-66
2023/07/03 11:48:37;;;;;;;5.80;1.58;;;20.10;85.80;;;;;;4947692;28;20067;-66
2023/07/03 11:51:05;;;;;;;8.05;1.60;;;20.20;84.20;;;;;;4989151;28;20404;-66
2023/07/03 11:53:33;;;;;;;5.70;1.40;;;20.00;84.60;;;;;;4956654;29;20141;-66
2023/07/03 11:55:59;;;;;;;7.82;1.80;;;20.10;84.30;;;;;;4956300;29;20098;-66
2023/07/03 11:58:32;;;;;;;7.25;1.63;;;20.20;84.90;;;;;;4953072;29;20058;-66
2023/07/03 12:01:20;;;;;;;5.75;1.50;;;20.40;84.00;;;;;;4956518;29;20058;-66
2023/07/03 12:04:02;;;;;;;6.03;1.42;;;20.80;84.00;;;;;;4956747;29;20055;-66
2023/07/03 12:06:40;;;;;;;6.72;1.50;;;20.90;80.80;;;;;;4956374;29;20035;-66
2023/07/03 12:09:18;;;;;;;6.80;1.60;;;20.80;80.80;;;;;;4956735;29;20044;-65
2023/07/03 12:11:59;;;;;;;8.25;1.55;;;20.80;81.40;;;;;;4957795;28;20051;-65
2023/07/03 12:14:41;;;;;;;4.68;1.42;;;20.70;81.20;;;;;;4972402;28;20130;-65
2023/07/03 12:17:15;;;;;;;6.28;1.50;;;21.00;84.30;;;;;;4956205;29;20039;-65
2023/07/03 12:19:41;;;;;;;7.40;1.60;;;21.10;80.00;;;;;;4956011;29;20051;-65
2023/07/03 12:22:07;;;;;;;6.95;1.60;;;21.00;81.10;;;;;;4956082;29;20376;-66
2023/07/03 12:24:33;;;;;;;4.78;1.23;;;20.80;81.80;;;;;;4957271;29;20040;-68
2023/07/03 12:27:05;;;;;;;6.28;1.65;;;20.60;82.00;;;;;;4955970;29;20035;-67
2023/07/03 12:29:37;;;;;;;6.30;1.65;;;20.30;82.50;;;;;;4956014;29;20043;-66
2023/07/03 12:32:07;;;;;;;7.28;1.63;;;20.00;83.30;;;;;;4957256;28;20512;-66
2023/07/03 12:34:39;;;;;;;7.60;1.70;;;19.90;84.60;;;;;;4955929;29;20043;-66
2023/07/03 12:37:07;;;;;;;;;;;19.70;85.20;;;;;;4955790;28;20500;-66
2023/07/03 12:39:34;;;;;;;5.93;1.40;;;19.70;87.00;;;;;;4957303;28;19928;-66
2023/07/03 12:42:15;;;;;;;6.10;1.52;;;20.00;85.90;;;;;;4972359;28;20527;-66
2023/07/03 12:44:41;;;;;;;7.28;1.52;;;20.50;84.90;;;;;;4955824;29;20079;-66
2023/07/03 12:47:09;;;;;;;5.70;1.33;;;21.10;85.70;;;;;;4956826;29;20526;-66
2023/07/03 12:49:55;;;;;;;7.45;1.50;;;21.50;83.80;;;;;;4957121;28;20062;-66
2023/07/03 12:52:25;;;;;;;8.95;1.67;;;21.70;78.00;;;;;;4955793;29;20094;-66
2023/07/03 12:54:52;;;;;;;5.35;1.42;;;21.50;76.90;;;;;;4955622;29;20043;-66